Time;durP1;ratioP1;P1;durP2;ratioP2;P2;SDS_P1;SDS_P2;PMS_P1;PMS_P2;Temp;Humidity;BMP_temperature;BMP_pressure;BME280_temperature;BME280_humidity;BME280_pressure;Samples;Min_cycle;Max_cycle;Signal;HPM_P1;HPM_P2
2023/10/18 00:00:25;;;;;;;12.70;8.25;;;6.80;99.90;;;;;;6197260;28;20050;-74
2023/10/18 00:03:29;;;;;;;12.98;8.57;;;6.80;99.90;;;;;;6207651;28;20510;-74
2023/10/18 00:06:32;;;;;;;10.93;7.80;;;6.80;99.90;;;;;;6197049;28;20050;-74
2023/10/18 00:09:45;;;;;;;10.82;7.45;;;6.70;99.90;;;;;;6196907;28;20057;-74
2023/10/18 00:12:48;;;;;;;11.93;7.80;;;6.70;99.90;;;;;;6197744;28;20119;-74
2023/10/18 00:15:52;;;;;;;12.43;8.27;;;6.70;99.90;;;;;;6198345;28;20145;-75
2023/10/18 00:18:55;;;;;;;14.02;8.40;;;6.70;99.90;;;;;;6198239;28;20156;-74
2023/10/18 00:21:57;;;;;;;10.18;7.72;;;6.70;99.90;;;;;;6211694;28;20070;-74
2023/10/18 00:25:00;;;;;;;15.20;8.52;;;6.70;99.90;;;;;;6196556;28;20058;-75
2023/10/18 00:28:03;;;;;;;12.55;8.57;;;6.70;99.90;;;;;;6196900;28;20061;-75
2023/10/18 00:31:16;;;;;;;17.52;10.55;;;6.70;99.90;;;;;;6196169;28;20046;-74
2023/10/18 00:34:19;;;;;;;11.73;7.35;;;6.70;99.90;;;;;;6196292;28;20093;-74
2023/10/18 00:37:25;;;;;;;11.77;8.15;;;6.70;99.90;;;;;;6195879;28;20054;-74
2023/10/18 00:40:40;;;;;;;15.45;9.05;;;6.70;99.90;;;;;;6212823;28;20423;-75
2023/10/18 00:43:44;;;;;;;10.63;8.27;;;6.70;99.90;;;;;;6220363;28;20053;-74
2023/10/18 00:46:46;;;;;;;14.30;8.52;;;6.70;99.90;;;;;;6220603;28;20046;-74
2023/10/18 00:49:52;;;;;;;15.07;8.40;;;6.70;99.90;;;;;;6220226;28;20125;-75
2023/10/18 00:52:54;;;;;;;11.50;8.10;;;6.60;99.90;;;;;;6219126;28;20526;-74
2023/10/18 00:55:59;;;;;;;8.82;7.90;;;6.60;99.90;;;;;;6224938;28;20050;-74
2023/10/18 00:59:04;;;;;;;17.77;9.15;;;6.60;99.90;;;;;;6224745;28;20422;-74
2023/10/18 01:02:11;;;;;;;12.85;9.05;;;6.60;99.90;;;;;;6225083;28;20507;-74
2023/10/18 01:05:15;;;;;;;13.13;9.38;;;6.50;99.90;;;;;;6224771;28;20045;-74
2023/10/18 01:08:23;;;;;;;8.48;6.88;;;6.50;99.90;;;;;;6218739;28;20046;-75
2023/10/18 01:11:27;;;;;;;15.40;8.38;;;6.50;99.90;;;;;;6234745;28;20046;-75
2023/10/18 01:14:28;;;;;;;10.93;8.77;;;6.40;99.90;;;;;;6224863;28;20049;-74
2023/10/18 01:17:33;;;;;;;15.63;9.10;;;6.40;99.90;;;;;;6224256;28;20052;-74
2023/10/18 01:20:40;;;;;;;10.68;9.02;;;6.40;99.90;;;;;;6225209;28;20127;-74
2023/10/18 01:23:44;;;;;;;11.68;7.53;;;6.40;99.90;;;;;;6224496;28;20065;-75
2023/10/18 01:26:47;;;;;;;13.95;9.98;;;6.40;99.90;;;;;;6222022;28;20415;-75
2023/10/18 01:29:49;;;;;;;11.68;7.47;;;6.30;99.90;;;;;;6200011;28;20388;-74
2023/10/18 01:32:51;;;;;;;12.13;8.60;;;6.40;99.90;;;;;;6200945;28;20046;-74
2023/10/18 01:35:53;;;;;;;15.95;9.02;;;6.30;99.90;;;;;;6199506;28;20050;-74
2023/10/18 01:38:56;;;;;;;11.00;8.85;;;6.30;99.90;;;;;;6199791;28;20492;-75
2023/10/18 01:42:00;;;;;;;15.88;9.50;;;6.30;99.90;;;;;;6199474;28;20466;-74
2023/10/18 01:45:02;;;;;;;13.23;8.70;;;6.30;99.90;;;;;;6199613;28;20193;-75
2023/10/18 01:48:09;;;;;;;13.35;9.75;;;6.30;99.90;;;;;;6200006;28;20470;-75
2023/10/18 01:51:12;;;;;;;19.13;9.20;;;6.30;99.90;;;;;;6199628;28;20049;-75
2023/10/18 01:54:15;;;;;;;14.75;9.23;;;6.20;99.90;;;;;;6198987;28;20046;-75
2023/10/18 01:57:19;;;;;;;12.65;8.82;;;6.20;99.90;;;;;;6199205;28;20058;-75
2023/10/18 02:00:25;;;;;;;9.48;8.23;;;6.20;99.90;;;;;;6200054;28;20046;-74
2023/10/18 02:03:28;;;;;;;12.25;8.43;;;6.10;99.90;;;;;;6199555;28;20058;-74
2023/10/18 02:06:30;;;;;;;11.05;8.05;;;6.10;99.90;;;;;;6214491;28;20137;-75
2023/10/18 02:09:35;;;;;;;16.50;8.05;;;6.00;99.90;;;;;;6223145;28;20052;-75
2023/10/18 02:12:38;;;;;;;11.88;8.27;;;6.00;99.90;;;;;;6233354;28;20046;-75
2023/10/18 02:15:40;;;;;;;10.10;8.23;;;5.90;99.90;;;;;;6232931;28;20069;-74
2023/10/18 02:18:44;;;;;;;16.48;8.57;;;5.80;99.90;;;;;;6203729;28;20058;-75
2023/10/18 02:21:47;;;;;;;12.05;8.82;;;5.80;99.90;;;;;;6196352;28;20053;-74
2023/10/18 02:24:50;;;;;;;15.73;8.20;;;5.80;99.90;;;;;;6174727;28;20176;-74
2023/10/18 02:27:53;;;;;;;15.88;9.10;;;5.70;99.90;;;;;;6200084;28;20042;-74
2023/10/18 02:30:56;;;;;;;16.58;9.15;;;5.70;99.90;;;;;;6198702;28;20065;-75
2023/10/18 02:33:58;;;;;;;13.40;8.20;;;5.60;99.90;;;;;;6198356;28;20042;-74
2023/10/18 02:37:00;;;;;;;19.60;8.90;;;5.60;99.90;;;;;;6198587;28;20519;-75
2023/10/18 02:40:08;;;;;;;11.70;8.50;;;5.60;99.90;;;;;;6198708;28;20145;-74
2023/10/18 02:43:14;;;;;;;14.95;9.05;;;5.60;99.90;;;;;;6198450;28;20038;-75
2023/10/18 02:46:20;;;;;;;20.35;9.27;;;5.50;99.90;;;;;;6198404;28;20550;-74
2023/10/18 02:49:27;;;;;;;15.20;8.25;;;5.50;99.90;;;;;;6201266;28;20576;-74
2023/10/18 02:52:30;;;;;;;12.05;8.90;;;5.50;99.90;;;;;;6198438;28;20050;-74
2023/10/18 02:55:33;;;;;;;16.77;10.20;;;5.50;99.90;;;;;;6214234;28;20046;-73
2023/10/18 02:58:38;;;;;;;14.77;8.70;;;5.50;99.90;;;;;;6222068;28;20052;-74
2023/10/18 03:01:40;;;;;;;13.00;8.88;;;5.50;99.90;;;;;;6221891;28;20149;-74
2023/10/18 03:04:43;;;;;;;14.85;10.43;;;5.40;99.90;;;;;;6221540;28;20061;-74
2023/10/18 03:07:45;;;;;;;16.88;8.32;;;5.40;99.90;;;;;;6221743;28;20041;-74
2023/10/18 03:10:47;;;;;;;11.43;7.43;;;5.40;99.90;;;;;;6221956;28;20050;-75
2023/10/18 03:13:51;;;;;;;15.15;9.07;;;5.40;99.90;;;;;;6222695;28;20530;-74
2023/10/18 03:16:55;;;;;;;17.83;9.25;;;5.40;99.90;;;;;;6222067;28;20076;-75
2023/10/18 03:19:57;;;;;;;10.40;7.85;;;5.40;99.90;;;;;;6221950;28;20053;-74
2023/10/18 03:23:02;;;;;;;15.88;8.98;;;5.30;99.90;;;;;;6234009;28;20098;-73
2023/10/18 03:26:08;;;;;;;14.30;8.20;;;5.40;99.90;;;;;;6225454;28;20064;-74
2023/10/18 03:29:12;;;;;;;13.93;8.27;;;5.30;99.90;;;;;;6222257;28;20046;-74
2023/10/18 03:32:19;;;;;;;16.02;9.73;;;5.30;99.90;;;;;;6222433;28;20053;-75
2023/10/18 03:35:21;;;;;;;14.25;9.30;;;5.30;99.90;;;;;;6217705;28;20042;-75
2023/10/18 03:38:24;;;;;;;16.63;9.45;;;5.40;99.90;;;;;;6197381;28;20057;-75
2023/10/18 03:41:27;;;;;;;18.45;9.93;;;5.40;99.90;;;;;;6197017;28;20555;-75
2023/10/18 03:44:32;;;;;;;17.88;9.07;;;5.40;99.90;;;;;;6197826;28;20077;-74
2023/10/18 03:47:37;;;;;;;16.00;8.63;;;5.40;99.90;;;;;;6196806;28;20077;-74
2023/10/18 03:50:40;;;;;;;16.25;10.10;;;5.40;99.90;;;;;;6214320;28;20046;-74
2023/10/18 03:53:42;;;;;;;15.00;9.68;;;5.40;99.90;;;;;;6221316;28;20038;-74
2023/10/18 03:56:46;;;;;;;18.15;9.18;;;5.40;99.90;;;;;;6221921;28;20046;-74
2023/10/18 03:59:52;;;;;;;15.55;10.25;;;5.40;99.90;;;;;;6221465;28;20511;-74
2023/10/18 04:02:56;;;;;;;14.93;10.73;;;5.40;99.90;;;;;;6220684;28;20092;-74
2023/10/18 04:06:07;;;;;;;19.50;9.85;;;5.40;99.90;;;;;;6220760;28;20128;-74
2023/10/18 04:09:16;;;;;;;14.85;10.95;;;5.40;99.90;;;;;;6220612;28;20415;-75
2023/10/18 04:12:19;;;;;;;13.85;9.50;;;5.40;99.90;;;;;;6221428;28;20049;-75
2023/10/18 04:15:29;;;;;;;16.50;9.13;;;5.40;99.90;;;;;;6220812;28;20042;-75
2023/10/18 04:18:31;;;;;;;15.07;8.70;;;5.50;99.90;;;;;;6220290;28;20549;-75
2023/10/18 04:21:33;;;;;;;17.67;10.52;;;5.40;99.90;;;;;;6220854;28;20113;-75
2023/10/18 04:24:35;;;;;;;14.10;10.27;;;5.50;99.90;;;;;;6226747;28;20049;-75
2023/10/18 04:27:37;;;;;;;12.75;9.13;;;5.40;99.90;;;;;;6204496;28;20148;-75
2023/10/18 04:30:42;;;;;;;16.17;10.82;;;5.40;99.90;;;;;;6206656;28;20415;-75
2023/10/18 04:33:49;;;;;;;14.07;11.18;;;5.40;99.90;;;;;;6196628;28;20522;-74
2023/10/18 04:36:51;;;;;;;17.63;12.05;;;5.40;99.90;;;;;;6196144;28;20050;-75
2023/10/18 04:39:53;;;;;;;16.90;11.25;;;5.40;99.90;;;;;;6195874;28;20139;-75
2023/10/18 04:42:56;;;;;;;12.18;9.45;;;5.40;99.90;;;;;;6196071;28;20410;-75
2023/10/18 04:46:02;;;;;;;21.02;12.02;;;5.50;99.90;;;;;;6197868;28;20050;-75
2023/10/18 04:49:36;;;;;;;16.50;11.27;;;5.50;99.90;;;;;;6215966;28;20046;-74
2023/10/18 04:52:41;;;;;;;16.77;10.10;;;5.50;99.90;;;;;;6220392;28;20061;-75
2023/10/18 04:55:46;;;;;;;15.27;10.93;;;5.50;99.90;;;;;;6195676;28;20691;-74
2023/10/18 04:58:46;;;;;;;15.23;10.05;;;5.50;99.90;;;;;;6195794;28;20073;-75
2023/10/18 05:01:56;;;;;;;17.20;10.02;;;5.50;99.90;;;;;;6195895;28;20499;-74
2023/10/18 05:04:58;;;;;;;16.98;9.52;;;5.50;99.90;;;;;;6196399;28;20056;-73
2023/10/18 05:08:00;;;;;;;19.58;11.88;;;5.50;99.90;;;;;;6196171;28;20057;-74
2023/10/18 05:14:35;;;;;;;18.27;10.70;;;5.50;99.90;;;;;;6194401;28;20038;-74
2023/10/18 05:17:42;;;;;;;21.42;12.50;;;5.60;99.90;;;;;;6195920;28;20113;-73
2023/10/18 05:20:55;;;;;;;17.10;11.17;;;5.70;99.90;;;;;;6196106;28;20046;-74
2023/10/18 05:23:57;;;;;;;18.00;12.23;;;5.90;99.90;;;;;;6195913;28;20050;-73
2023/10/18 05:27:04;;;;;;;19.55;12.13;;;6.10;99.90;;;;;;6195670;28;20053;-74
2023/10/18 05:30:14;;;;;;;18.03;11.60;;;6.20;99.90;;;;;;6200751;28;20727;-74
2023/10/18 05:33:47;;;;;;;18.75;11.15;;;6.30;99.90;;;;;;6202904;28;20499;-74
2023/10/18 05:36:54;;;;;;;16.67;12.55;;;6.40;99.90;;;;;;6213547;28;20133;-74
2023/10/18 05:43:22;;;;;;;22.17;12.23;;;6.40;99.90;;;;;;6223632;28;20049;-74
2023/10/18 05:46:27;;;;;;;20.20;12.20;;;6.40;99.90;;;;;;6223886;28;20050;-74
2023/10/18 05:49:34;;;;;;;20.45;12.98;;;6.40;99.90;;;;;;6223668;28;20419;-74
2023/10/18 05:52:38;;;;;;;24.03;14.27;;;6.40;99.90;;;;;;6224304;28;20176;-74
2023/10/18 05:55:40;;;;;;;24.25;13.93;;;6.50;99.90;;;;;;6223886;28;20041;-74
2023/10/18 05:58:41;;;;;;;24.10;15.07;;;6.50;99.90;;;;;;6223616;28;20037;-74
2023/10/18 06:01:43;;;;;;;19.48;13.50;;;6.50;99.90;;;;;;6223853;28;20046;-73
2023/10/18 06:04:46;;;;;;;19.48;10.95;;;6.60;99.90;;;;;;6224246;28;20056;-74
2023/10/18 06:07:48;;;;;;;18.27;12.45;;;6.70;99.90;;;;;;6223503;28;20048;-74
2023/10/18 06:10:55;;;;;;;15.63;12.27;;;6.70;99.90;;;;;;6223441;28;20554;-74
2023/10/18 06:13:58;;;;;;;16.33;12.07;;;6.80;99.90;;;;;;6223453;28;20056;-74
2023/10/18 06:17:12;;;;;;;18.85;12.55;;;6.80;99.90;;;;;;6223262;28;20140;-74
2023/10/18 06:20:24;;;;;;;18.30;11.68;;;6.90;99.90;;;;;;6223567;28;20117;-73
2023/10/18 06:23:38;;;;;;;22.20;12.50;;;7.00;99.90;;;;;;6223510;28;20546;-74
2023/10/18 06:26:41;;;;;;;17.27;11.32;;;7.00;99.90;;;;;;6214086;28;20145;-72
2023/10/18 06:29:45;;;;;;;22.33;13.02;;;7.10;99.90;;;;;;6199057;28;20050;-74
2023/10/18 06:32:46;;;;;;;12.93;9.73;;;7.10;99.90;;;;;;6199435;28;20046;-74
2023/10/18 06:35:52;;;;;;;21.52;12.63;;;7.20;99.90;;;;;;6198079;28;20426;-74
2023/10/18 06:38:54;;;;;;;19.75;11.43;;;7.30;99.90;;;;;;6207659;28;20539;-74
2023/10/18 06:41:56;;;;;;;19.77;11.27;;;7.30;99.90;;;;;;6224394;28;20045;-74
2023/10/18 06:44:58;;;;;;;16.52;12.35;;;7.30;99.90;;;;;;6223160;28;20056;-74
2023/10/18 06:48:02;;;;;;;22.08;12.68;;;7.40;99.90;;;;;;6223010;28;20411;-74
2023/10/18 06:51:11;;;;;;;33.47;27.25;;;7.40;99.90;;;;;;6221637;28;20057;-74
2023/10/18 06:54:23;;;;;;;25.45;22.25;;;7.50;99.90;;;;;;6221884;28;20123;-74
2023/10/18 06:57:35;;;;;;;21.75;17.10;;;7.50;99.90;;;;;;6198290;28;20143;-75
2023/10/18 07:00:43;;;;;;;17.90;10.50;;;7.60;99.90;;;;;;6198342;28;20630;-74
2023/10/18 07:03:44;;;;;;;24.20;13.88;;;7.70;99.90;;;;;;6198203;28;20066;-75
2023/10/18 07:06:49;;;;;;;34.30;27.17;;;7.70;99.90;;;;;;6214112;28;20048;-75
2023/10/18 07:09:54;;;;;;;22.13;18.95;;;7.90;99.90;;;;;;6222018;28;20522;-74
2023/10/18 07:12:55;;;;;;;16.95;13.43;;;8.00;99.90;;;;;;6222207;28;20042;-74
2023/10/18 07:16:05;;;;;;;17.10;11.27;;;8.10;99.90;;;;;;6222416;28;20111;-74
2023/10/18 07:19:21;;;;;;;14.57;10.73;;;8.30;99.90;;;;;;6221693;28;20053;-75
2023/10/18 07:22:39;;;;;;;19.30;11.02;;;8.40;99.90;;;;;;6162049;28;20042;-75
2023/10/18 07:25:41;;;;;;;19.42;10.77;;;8.60;99.90;;;;;;6208121;28;20050;-75
2023/10/18 07:28:44;;;;;;;17.23;10.63;;;8.70;99.90;;;;;;6226713;28;20104;-74
2023/10/18 07:31:46;;;;;;;18.27;10.80;;;8.90;99.90;;;;;;6223447;28;20404;-73
2023/10/18 07:34:49;;;;;;;15.75;10.45;;;9.10;99.90;;;;;;6205747;28;20050;-75
2023/10/18 07:37:52;;;;;;;12.90;9.25;;;9.20;99.90;;;;;;6197263;28;20046;-75
2023/10/18 07:40:57;;;;;;;15.20;9.02;;;9.40;99.90;;;;;;6198008;28;20058;-75
2023/10/18 07:44:00;;;;;;;17.67;9.80;;;9.50;99.90;;;;;;6203910;28;20030;-75
2023/10/18 07:47:01;;;;;;;14.15;9.15;;;9.50;99.90;;;;;;6202303;28;20125;-76
2023/10/18 07:50:25;;;;;;;10.25;8.27;;;9.50;99.90;;;;;;6197783;28;20049;-76
2023/10/18 07:53:28;;;;;;;15.00;9.10;;;9.60;99.90;;;;;;6196680;28;20046;-76
2023/10/18 07:56:31;;;;;;;16.58;11.63;;;9.70;99.90;;;;;;6196709;28;20105;-76
2023/10/18 07:59:33;;;;;;;16.70;9.73;;;9.90;99.90;;;;;;6195689;28;20053;-75
2023/10/18 08:02:42;;;;;;;13.07;8.70;;;10.20;99.90;;;;;;6197373;28;20078;-75
2023/10/18 08:05:50;;;;;;;16.73;14.85;;;10.50;99.90;;;;;;6196765;28;20524;-75
2023/10/18 08:08:53;;;;;;;20.48;16.10;;;10.80;99.90;;;;;;6198349;28;20054;-76
2023/10/18 08:11:55;;;;;;;18.40;10.32;;;11.20;99.90;;;;;;6197004;28;20460;-76
2023/10/18 08:14:57;;;;;;;12.10;7.85;;;11.50;99.90;;;;;;6216313;28;20046;-75
2023/10/18 08:18:00;;;;;;;11.20;7.85;;;11.60;99.90;;;;;;6221505;28;20046;-76
2023/10/18 08:21:07;;;;;;;12.95;9.70;;;11.60;99.90;;;;;;6228182;28;20061;-75
2023/10/18 08:24:19;;;;;;;12.55;9.32;;;11.70;99.90;;;;;;6228169;28;20056;-76
2023/10/18 08:27:21;;;;;;;10.43;8.23;;;11.70;99.90;;;;;;6207133;28;20046;-75
2023/10/18 08:30:24;;;;;;;10.20;7.55;;;11.80;99.90;;;;;;6216679;28;20512;-76
2023/10/18 08:33:26;;;;;;;14.60;8.30;;;12.10;99.90;;;;;;6197250;28;20050;-76
2023/10/18 08:36:31;;;;;;;12.15;8.60;;;12.50;99.90;;;;;;6196944;28;20488;-76
2023/10/18 08:39:39;;;;;;;10.13;8.35;;;12.90;99.90;;;;;;6196045;28;20474;-75
2023/10/18 08:42:45;;;;;;;12.57;8.90;;;13.40;99.90;;;;;;6196550;28;20042;-75
2023/10/18 08:45:48;;;;;;;14.95;8.35;;;13.70;99.90;;;;;;6196602;28;20065;-76
2023/10/18 08:48:50;;;;;;;12.25;9.18;;;14.00;99.90;;;;;;6211417;28;20054;-76
2023/10/18 08:52:04;;;;;;;14.15;11.93;;;14.30;99.60;;;;;;6224039;28;20052;-76
2023/10/18 08:55:22;;;;;;;17.50;8.30;;;14.50;98.80;;;;;;6211160;28;20053;-75
2023/10/18 08:58:28;;;;;;;11.88;9.02;;;14.80;97.80;;;;;;6217282;28;20423;-76
2023/10/18 09:01:34;;;;;;;9.02;6.90;;;15.20;97.20;;;;;;6220668;28;20041;-76
2023/10/18 09:04:35;;;;;;;9.48;7.10;;;15.50;96.20;;;;;;6221913;28;20046;-75
2023/10/18 09:07:46;;;;;;;12.95;7.85;;;15.60;95.30;;;;;;6220482;28;20066;-75
2023/10/18 09:10:55;;;;;;;9.48;7.28;;;15.90;94.50;;;;;;6224981;28;20042;-75
2023/10/18 09:17:21;;;;;;;10.55;7.35;;;16.30;92.80;;;;;;6224709;28;20659;-75
2023/10/18 09:20:26;;;;;;;9.40;6.90;;;15.90;91.50;;;;;;6225464;28;20127;-76
2023/10/18 09:23:30;;;;;;;10.30;7.40;;;15.40;91.50;;;;;;6227155;28;20045;-76
2023/10/18 09:26:40;;;;;;;9.30;7.43;;;15.30;91.90;;;;;;6228710;28;20363;-77
2023/10/18 09:29:42;;;;;;;9.20;6.60;;;15.40;91.80;;;;;;6202317;28;20667;-75
2023/10/18 09:32:45;;;;;;;9.65;7.03;;;15.80;91.50;;;;;;6201756;28;20049;-77
2023/10/18 09:35:49;;;;;;;9.27;6.38;;;16.20;91.00;;;;;;6200253;28;20136;-76
2023/10/18 09:38:52;;;;;;;8.30;6.13;;;16.90;90.20;;;;;;6202589;28;20053;-76
2023/10/18 09:41:55;;;;;;;9.68;6.22;;;17.40;88.60;;;;;;6216497;28;20049;-75
2023/10/18 09:44:56;;;;;;;9.13;6.75;;;17.60;86.90;;;;;;6198510;28;20065;-76
2023/10/18 09:47:59;;;;;;;8.77;6.35;;;17.40;85.60;;;;;;6200491;28;20420;-76
2023/10/18 09:51:06;;;;;;;9.10;7.00;;;17.10;85.50;;;;;;6200297;28;20049;-75
2023/10/18 09:54:12;;;;;;;10.18;7.03;;;16.90;85.80;;;;;;6206896;28;20205;-75
2023/10/18 09:57:23;;;;;;;10.93;6.90;;;16.80;85.50;;;;;;6233389;28;20046;-75
2023/10/18 10:00:27;;;;;;;10.20;6.93;;;16.40;84.60;;;;;;6213294;28;20085;-76
2023/10/18 10:03:32;;;;;;;10.05;6.75;;;16.10;85.00;;;;;;6224120;28;20042;-76
2023/10/18 10:06:34;;;;;;;8.25;6.18;;;16.00;85.50;;;;;;6223938;28;20045;-76
2023/10/18 10:09:38;;;;;;;10.20;6.38;;;16.00;85.30;;;;;;6223515;28;20046;-76
2023/10/18 10:12:42;;;;;;;9.20;6.47;;;15.80;84.10;;;;;;6224206;28;20050;-76
2023/10/18 10:15:46;;;;;;;7.45;6.45;;;15.60;84.80;;;;;;6222443;28;20037;-75
2023/10/18 10:18:50;;;;;;;9.35;8.38;;;15.50;84.20;;;;;;6231421;28;20060;-75
2023/10/18 10:21:54;;;;;;;11.40;7.05;;;15.30;84.70;;;;;;6223067;28;20463;-75
2023/10/18 10:25:00;;;;;;;9.20;6.15;;;15.30;84.90;;;;;;6215313;28;20132;-76
2023/10/18 10:28:14;;;;;;;9.27;6.47;;;15.30;84.90;;;;;;6199204;28;20607;-75
2023/10/18 10:31:21;;;;;;;14.98;7.10;;;15.20;84.80;;;;;;6198477;28;20508;-75
2023/10/18 10:34:27;;;;;;;15.13;9.80;;;15.20;84.80;;;;;;6197126;28;20038;-75
2023/10/18 10:37:31;;;;;;;8.25;6.32;;;15.10;84.90;;;;;;6197899;28;20125;-75
2023/10/18 10:40:39;;;;;;;9.73;6.28;;;15.00;85.10;;;;;;6199371;28;20420;-75
2023/10/18 10:44:08;;;;;;;12.25;7.45;;;14.80;85.00;;;;;;6198558;28;20044;-75
2023/10/18 10:47:32;;;;;;;14.95;6.88;;;14.60;84.80;;;;;;6198723;28;20050;-74
2023/10/18 10:50:45;;;;;;;6.20;5.68;;;14.40;85.50;;;;;;6199000;28;20042;-75
2023/10/18 10:53:50;;;;;;;9.40;7.03;;;14.20;85.40;;;;;;6206965;28;20050;-74
2023/10/18 10:56:53;;;;;;;7.53;5.38;;;14.10;85.70;;;;;;6199293;28;20161;-75
2023/10/18 10:59:57;;;;;;;8.35;6.35;;;14.10;86.80;;;;;;6199239;28;20051;-75
2023/10/18 11:03:06;;;;;;;12.27;7.00;;;14.20;86.40;;;;;;6210171;28;20042;-72
2023/10/18 11:06:10;;;;;;;12.90;7.10;;;14.40;86.10;;;;;;6233198;28;20704;-76
2023/10/18 11:09:16;;;;;;;10.02;6.25;;;14.40;85.90;;;;;;6222698;28;20049;-74
2023/10/18 11:12:20;;;;;;;13.57;6.43;;;14.50;86.20;;;;;;6222922;28;20060;-77
2023/10/18 11:15:27;;;;;;;11.13;6.63;;;14.70;86.30;;;;;;6222245;28;20045;-75
2023/10/18 11:18:34;;;;;;;8.88;6.68;;;14.80;86.10;;;;;;6222192;28;20129;-75
2023/10/18 11:21:38;;;;;;;7.05;6.30;;;14.90;85.80;;;;;;6222332;28;20504;-75
2023/10/18 11:24:41;;;;;;;7.95;6.75;;;15.10;86.10;;;;;;6219040;28;20438;-75
2023/10/18 11:27:42;;;;;;;11.70;8.27;;;15.20;85.80;;;;;;6213709;28;20124;-75
2023/10/18 11:30:46;;;;;;;11.88;6.88;;;15.30;85.30;;;;;;6197766;28;20046;-75
2023/10/18 11:33:54;;;;;;;8.85;6.25;;;15.40;85.20;;;;;;6197539;28;20144;-76
2023/10/18 11:37:01;;;;;;;;;;;15.40;84.80;;;;;;6213688;28;20054;-75
2023/10/18 11:40:14;;;;;;;14.40;10.02;;;15.40;85.10;;;;;;6220510;28;20283;-75
2023/10/18 11:43:24;;;;;;;62.00;39.28;;;15.30;85.10;;;;;;6220095;28;20137;-75
2023/10/18 11:46:27;;;;;;;15.68;14.07;;;15.30;85.10;;;;;;6219857;28;20187;-74
2023/10/18 11:49:37;;;;;;;9.48;7.00;;;15.30;85.10;;;;;;6220011;28;20043;-74
2023/10/18 11:52:39;;;;;;;9.63;7.00;;;15.30;84.90;;;;;;6197327;28;20073;-73
2023/10/18 11:55:55;;;;;;;7.68;6.25;;;15.30;85.00;;;;;;6205886;28;20042;-74
2023/10/18 11:59:00;;;;;;;9.27;6.25;;;15.50;85.00;;;;;;6204854;28;20053;-74
2023/10/18 12:02:06;;;;;;;8.50;6.22;;;15.60;84.80;;;;;;6204620;28;20050;-74
2023/10/18 12:05:10;;;;;;;9.93;6.15;;;15.70;84.60;;;;;;6204776;28;20047;-74
2023/10/18 12:08:13;;;;;;;10.57;5.15;;;15.70;84.50;;;;;;6212192;28;20458;-75
2023/10/18 12:11:16;;;;;;;8.07;6.28;;;15.80;84.60;;;;;;6216003;28;20030;-74
2023/10/18 12:14:18;;;;;;;7.70;5.68;;;15.90;84.40;;;;;;6199853;28;20462;-74
2023/10/18 12:17:21;;;;;;;9.00;7.68;;;16.00;84.50;;;;;;6208540;28;20049;-74
2023/10/18 12:20:34;;;;;;;12.98;6.55;;;16.20;84.30;;;;;;6205326;28;20078;-75
2023/10/18 12:23:36;;;;;;;7.82;6.40;;;16.30;84.00;;;;;;6212780;28;20047;-75
2023/10/18 12:26:39;;;;;;;7.65;6.47;;;16.40;83.60;;;;;;6216050;28;20050;-75
2023/10/18 12:29:43;;;;;;;10.60;7.28;;;16.40;83.00;;;;;;6207717;28;20049;-77
2023/10/18 12:32:51;;;;;;;9.20;6.00;;;16.40;82.90;;;;;;6211327;28;20081;-75
2023/10/18 12:35:56;;;;;;;7.47;6.40;;;16.20;83.10;;;;;;6212539;28;20602;-75
2023/10/18 12:38:58;;;;;;;9.23;6.15;;;16.20;83.40;;;;;;6204528;28;20065;-75
2023/10/18 12:42:00;;;;;;;13.75;11.75;;;16.10;83.50;;;;;;6204310;28;20050;-75
2023/10/18 12:45:09;;;;;;;8.65;7.95;;;16.00;83.70;;;;;;6220602;28;20053;-75
2023/10/18 12:48:14;;;;;;;8.00;6.63;;;15.90;83.90;;;;;;6213747;28;20503;-75
2023/10/18 12:51:17;;;;;;;13.05;7.03;;;15.70;83.90;;;;;;6215844;28;20049;-75
2023/10/18 12:54:20;;;;;;;9.02;6.45;;;15.60;84.00;;;;;;6205368;28;20046;-74
2023/10/18 12:57:21;;;;;;;9.40;6.18;;;15.40;84.20;;;;;;6201318;28;20078;-75
2023/10/18 13:00:25;;;;;;;15.40;10.27;;;15.30;84.70;;;;;;6209701;28;20397;-74
2023/10/18 13:03:34;;;;;;;11.82;7.55;;;15.20;85.30;;;;;;6201351;28;20085;-73
2023/10/18 13:06:42;;;;;;;15.27;9.65;;;15.00;85.60;;;;;;6201368;28;20046;-75
2023/10/18 13:09:44;;;;;;;;;;;14.90;85.90;;;;;;6214929;28;20042;-75
2023/10/18 13:12:51;;;;;;;15.05;6.35;;;14.90;86.00;;;;;;6225870;28;19921;-75
2023/10/18 13:15:53;;;;;;;13.93;6.47;;;14.90;86.40;;;;;;6221193;28;20142;-74
2023/10/18 13:18:57;;;;;;;7.63;5.20;;;14.80;86.50;;;;;;6225350;28;20050;-76
2023/10/18 13:21:59;;;;;;;11.55;6.43;;;14.80;86.70;;;;;;6219309;28;20054;-74
2023/10/18 13:25:07;;;;;;;7.68;5.90;;;14.80;86.70;;;;;;6220856;28;20054;-73
2023/10/18 13:28:10;;;;;;;11.07;5.95;;;14.70;86.70;;;;;;6217693;28;20419;-74
2023/10/18 13:31:18;;;;;;;8.98;6.10;;;14.40;87.20;;;;;;6216937;28;20078;-74
2023/10/18 13:34:21;;;;;;;9.95;7.30;;;14.20;88.00;;;;;;6206234;28;20046;-75
2023/10/18 13:37:24;;;;;;;10.13;6.30;;;14.00;88.50;;;;;;6200687;28;20047;-75
2023/10/18 13:40:27;;;;;;;8.00;6.43;;;13.70;88.90;;;;;;6219833;28;20058;-74
2023/10/18 13:43:30;;;;;;;13.48;5.93;;;13.40;89.80;;;;;;6213572;28;20500;-75
2023/10/18 13:46:32;;;;;;;17.40;7.85;;;13.20;90.30;;;;;;6200232;28;20526;-74
2023/10/18 13:49:35;;;;;;;9.63;6.65;;;13.10;90.70;;;;;;6208094;28;20046;-73
2023/10/18 13:52:37;;;;;;;11.48;7.40;;;13.00;91.30;;;;;;6215886;28;20128;-74
2023/10/18 13:55:40;;;;;;;11.18;7.80;;;12.90;91.60;;;;;;6209885;28;20681;-74
2023/10/18 13:58:42;;;;;;;9.73;7.22;;;12.80;92.00;;;;;;6218938;28;20046;-73
2023/10/18 14:01:44;;;;;;;12.45;8.68;;;12.80;92.40;;;;;;6212758;28;20049;-75
2023/10/18 14:04:48;;;;;;;11.93;9.05;;;12.80;92.70;;;;;;6224590;28;20411;-74
2023/10/18 14:07:50;;;;;;;8.13;6.38;;;12.90;92.90;;;;;;6222465;28;20053;-74
2023/10/18 14:10:55;;;;;;;14.85;11.25;;;12.90;93.30;;;;;;6214297;28;20042;-74
2023/10/18 14:13:58;;;;;;;13.82;9.27;;;13.00;93.70;;;;;;6207187;28;20503;-75
2023/10/18 14:17:00;;;;;;;14.40;7.57;;;13.10;94.10;;;;;;6217315;28;20050;-73
2023/10/18 14:20:10;;;;;;;12.68;7.50;;;13.10;94.30;;;;;;6199664;28;20053;-74
2023/10/18 14:23:12;;;;;;;9.35;7.18;;;13.10;94.60;;;;;;6223598;28;20418;-74
2023/10/18 14:26:15;;;;;;;11.52;7.20;;;13.10;95.00;;;;;;6222825;28;20499;-74
2023/10/18 14:29:17;;;;;;;11.60;7.07;;;13.00;95.50;;;;;;6219862;28;20066;-74
2023/10/18 14:32:19;;;;;;;10.52;7.80;;;13.00;96.00;;;;;;6222917;28;20135;-74
2023/10/18 14:35:25;;;;;;;13.38;8.90;;;12.90;96.40;;;;;;6199120;28;20049;-74
2023/10/18 14:38:28;;;;;;;17.45;10.60;;;13.00;97.20;;;;;;6201681;28;20133;-74
2023/10/18 14:41:30;;;;;;;11.65;7.82;;;13.00;97.80;;;;;;6225608;28;20563;-75
2023/10/18 14:44:32;;;;;;;12.13;8.38;;;13.10;98.10;;;;;;6225420;28;20046;-73
2023/10/18 14:47:38;;;;;;;11.20;8.38;;;13.10;98.40;;;;;;6210190;28;20144;-74
2023/10/18 14:50:41;;;;;;;9.32;8.18;;;13.20;99.20;;;;;;6215421;28;20053;-73
2023/10/18 14:53:43;;;;;;;13.63;11.25;;;13.40;99.70;;;;;;6223806;28;20052;-74
2023/10/18 14:56:45;;;;;;;8.38;6.97;;;13.50;99.90;;;;;;6215624;28;20510;-74
2023/10/18 14:59:47;;;;;;;9.35;7.75;;;13.60;99.90;;;;;;6210024;28;20053;-74
2023/10/18 15:02:50;;;;;;;10.40;8.05;;;13.80;99.90;;;;;;6203730;28;20062;-74
2023/10/18 15:05:54;;;;;;;9.00;6.57;;;13.90;99.90;;;;;;6214582;28;20058;-75
2023/10/18 15:08:57;;;;;;;13.10;7.90;;;13.80;99.90;;;;;;6223100;28;20427;-74
2023/10/18 15:11:59;;;;;;;10.57;7.25;;;13.70;99.90;;;;;;6208027;28;20058;-74
2023/10/18 15:15:01;;;;;;;8.50;6.57;;;13.70;99.90;;;;;;6213103;28;20172;-73
2023/10/18 15:18:03;;;;;;;8.80;6.43;;;13.70;99.90;;;;;;6225103;28;20046;-74
2023/10/18 15:21:09;;;;;;;9.32;6.75;;;13.80;99.90;;;;;;6199697;28;20554;-74
2023/10/18 15:24:12;;;;;;;7.85;6.53;;;13.80;99.90;;;;;;6217395;28;20041;-73
2023/10/18 15:27:15;;;;;;;13.27;6.15;;;13.90;99.90;;;;;;6220675;28;20175;-73
2023/10/18 15:30:17;;;;;;;8.73;5.78;;;13.90;99.90;;;;;;6198096;28;20092;-76
2023/10/18 15:33:19;;;;;;;6.85;6.07;;;13.80;99.90;;;;;;6198642;28;20049;-74
2023/10/18 15:36:23;;;;;;;6.97;6.28;;;13.60;99.90;;;;;;6209056;28;20089;-75
2023/10/18 15:39:26;;;;;;;7.65;6.70;;;13.50;99.90;;;;;;6225524;28;20041;-75
2023/10/18 15:42:28;;;;;;;9.13;6.60;;;13.30;99.90;;;;;;6208506;28;20049;-74
2023/10/18 15:45:30;;;;;;;10.80;7.38;;;13.20;99.90;;;;;;6208464;28;20414;-74
2023/10/18 15:48:32;;;;;;;13.13;9.60;;;13.00;99.90;;;;;;6222738;28;20046;-74
2023/10/18 15:51:36;;;;;;;13.07;9.10;;;12.90;99.90;;;;;;6211029;28;20088;-74
2023/10/18 15:54:38;;;;;;;20.25;10.50;;;12.70;99.90;;;;;;6224402;28;20044;-74
2023/10/18 15:57:40;;;;;;;13.35;9.80;;;12.50;99.90;;;;;;6201772;28;20057;-74
2023/10/18 16:00:42;;;;;;;13.35;9.90;;;12.30;99.90;;;;;;6197390;28;20625;-73
2023/10/18 16:03:45;;;;;;;13.57;9.50;;;12.10;99.90;;;;;;6197080;28;20038;-73
2023/10/18 16:06:50;;;;;;;15.00;9.73;;;12.00;99.90;;;;;;6201014;28;20054;-74